createdAt,value
2019-06-15T00:01:56.559Z,22.53
2019-06-15T00:04:30.040Z,22.53
2019-06-15T00:07:03.585Z,22.51
2019-06-15T00:09:37.786Z,22.51
2019-06-15T00:12:11.316Z,22.49
2019-06-15T00:14:44.710Z,22.47
2019-06-15T00:17:19.090Z,22.45
2019-06-15T00:19:53.989Z,22.40
2019-06-15T00:22:27.270Z,22.24
2019-06-15T00:25:00.419Z,22.07
2019-06-15T00:27:34.080Z,21.83
2019-06-15T00:30:09.040Z,21.45
2019-06-15T00:32:42.629Z,21.17
2019-06-15T00:35:17.121Z,20.90
2019-06-15T00:37:49.817Z,20.74
2019-06-15T00:40:23.036Z,20.68
2019-06-15T00:42:55.585Z,20.44
2019-06-15T00:45:29.153Z,20.36
2019-06-15T00:48:02.377Z,20.27
2019-06-15T00:50:35.933Z,20.22
2019-06-15T00:53:09.673Z,20.11
2019-06-15T00:55:42.728Z,19.97
2019-06-15T00:58:15.890Z,19.90
2019-06-15T01:00:50.080Z,19.89
2019-06-15T01:03:23.642Z,19.82
2019-06-15T01:05:57.315Z,19.75
2019-06-15T01:08:30.126Z,19.78
2019-06-15T01:11:03.405Z,19.83
2019-06-15T01:13:37.065Z,20.01
2019-06-15T01:16:10.309Z,19.97
2019-06-15T01:18:43.094Z,19.88
2019-06-15T01:21:17.281Z,19.69
2019-06-15T01:23:50.773Z,19.57
2019-06-15T01:26:24.483Z,19.60
2019-06-15T01:28:57.836Z,19.71
2019-06-15T01:31:31.301Z,19.73
2019-06-15T01:34:04.583Z,19.75
2019-06-15T01:36:37.634Z,19.79
2019-06-15T01:39:11.449Z,19.80
2019-06-15T01:41:44.791Z,19.72
2019-06-15T01:44:18.269Z,19.73
2019-06-15T01:46:53.215Z,19.78
2019-06-15T01:49:26.069Z,19.83
2019-06-15T01:51:59.350Z,19.73
2019-06-15T01:54:32.995Z,19.50
2019-06-15T01:57:07.732Z,19.44
2019-06-15T01:59:40.781Z,19.56
2019-06-15T02:02:13.987Z,19.81
2019-06-15T02:04:47.295Z,19.49
2019-06-15T02:07:20.780Z,19.67
2019-06-15T02:09:54.145Z,19.55
2019-06-15T02:12:27.689Z,19.69
2019-06-15T02:15:01.032Z,20.13
2019-06-15T02:17:34.183Z,20.00
2019-06-15T02:20:07.967Z,19.88
2019-06-15T02:22:40.969Z,19.81
2019-06-15T02:25:14.351Z,19.84
2019-06-15T02:27:48.078Z,19.84
2019-06-15T02:30:28.288Z,19.71
2019-06-15T02:33:02.401Z,19.66
2019-06-15T02:35:35.884Z,19.61
2019-06-15T02:38:09.645Z,19.57
2019-06-15T02:40:42.918Z,19.48
2019-06-15T02:43:16.043Z,19.45
2019-06-15T02:45:48.958Z,19.38
2019-06-15T02:48:22.338Z,19.26
2019-06-15T02:50:55.503Z,19.18
2019-06-15T02:53:29.757Z,19.30
2019-06-15T02:56:03.507Z,19.28
2019-06-15T02:58:37.071Z,19.17
2019-06-15T03:01:10.914Z,19.00
2019-06-15T03:03:44.131Z,18.84
2019-06-15T03:06:18.248Z,18.84
2019-06-15T03:08:52.129Z,18.75
2019-06-15T03:11:25.662Z,18.75
2019-06-15T03:14:00.427Z,18.74
2019-06-15T03:16:34.086Z,18.70
2019-06-15T03:19:07.084Z,18.70
2019-06-15T03:21:40.685Z,18.64
2019-06-15T03:24:13.781Z,18.58
2019-06-15T03:26:47.342Z,18.51
2019-06-15T03:29:21.587Z,18.44
2019-06-15T03:31:55.060Z,18.38
2019-06-15T03:34:28.620Z,18.32
2019-06-15T03:37:02.001Z,18.31
2019-06-15T03:39:35.076Z,18.33
2019-06-15T03:42:08.255Z,18.31
2019-06-15T03:44:41.557Z,18.26
2019-06-15T03:47:15.281Z,18.18
2019-06-15T03:49:49.653Z,18.22
2019-06-15T03:52:22.547Z,18.17
2019-06-15T03:54:55.988Z,18.16
2019-06-15T03:57:29.247Z,18.22
2019-06-15T04:00:02.578Z,18.26
2019-06-15T04:02:35.570Z,18.23
2019-06-15T04:05:08.667Z,18.20
2019-06-15T04:07:42.690Z,18.30
2019-06-15T04:10:17.137Z,18.30
2019-06-15T04:12:49.746Z,18.34
2019-06-15T04:15:23.000Z,18.40
2019-06-15T04:17:56.605Z,18.44
2019-06-15T04:20:30.293Z,18.41
2019-06-15T04:23:04.005Z,18.35
2019-06-15T04:25:37.992Z,18.33
2019-06-15T04:28:11.767Z,18.36
2019-06-15T04:30:45.708Z,18.39
2019-06-15T04:33:19.287Z,18.35
2019-06-15T04:35:52.387Z,18.35
2019-06-15T04:38:26.153Z,18.38
2019-06-15T04:41:01.650Z,18.54
2019-06-15T04:43:34.865Z,18.59
2019-06-15T04:46:08.478Z,18.49
2019-06-15T04:48:42.172Z,18.49
2019-06-15T04:51:15.953Z,18.57
2019-06-15T04:53:49.469Z,18.63
2019-06-15T04:56:22.973Z,18.85
2019-06-15T04:58:56.260Z,19.05
2019-06-15T05:01:29.838Z,19.25
2019-06-15T05:04:03.714Z,19.39
2019-06-15T05:06:39.608Z,19.53
2019-06-15T05:09:13.772Z,19.68
2019-06-15T05:11:47.111Z,19.78
2019-06-15T05:14:20.858Z,19.88
2019-06-15T05:16:54.228Z,19.90
2019-06-15T05:19:28.567Z,20.12
2019-06-15T05:22:02.588Z,20.28
2019-06-15T05:24:36.771Z,20.39
2019-06-15T05:27:10.557Z,20.49
2019-06-15T05:29:44.741Z,20.59
2019-06-15T05:32:18.344Z,20.73
2019-06-15T05:34:51.879Z,20.82
2019-06-15T05:37:25.546Z,20.96
2019-06-15T05:39:59.508Z,21.12
2019-06-15T05:42:33.079Z,21.30
2019-06-15T05:45:07.559Z,21.40
2019-06-15T05:47:41.402Z,21.50
2019-06-15T05:50:15.774Z,21.73
2019-06-15T05:52:49.881Z,22.01
2019-06-15T05:55:23.948Z,22.25
2019-06-15T05:57:58.973Z,22.46
2019-06-15T06:00:32.781Z,22.66
2019-06-15T06:03:06.410Z,22.91
2019-06-15T06:05:40.371Z,23.16
2019-06-15T06:08:22.714Z,23.35
2019-06-15T06:10:57.151Z,23.44
2019-06-15T06:13:31.213Z,23.57
2019-06-15T06:16:05.618Z,23.71
2019-06-15T06:18:39.351Z,23.92
2019-06-15T06:21:13.216Z,24.15
2019-06-15T06:23:47.846Z,24.42
2019-06-15T06:26:21.853Z,24.99
2019-06-15T06:28:57.460Z,25.74
2019-06-15T06:31:30.662Z,26.48
2019-06-15T06:34:05.022Z,27.09
2019-06-15T06:36:39.696Z,27.77
2019-06-15T06:39:15.265Z,28.27
2019-06-15T06:41:49.594Z,29.11
2019-06-15T06:44:23.706Z,29.52
2019-06-15T06:46:57.619Z,29.09
2019-06-15T06:49:32.526Z,29.51
2019-06-15T06:52:06.190Z,29.81
2019-06-15T06:54:40.251Z,30.21
2019-06-15T06:57:14.881Z,30.65
2019-06-15T06:59:51.205Z,30.90
2019-06-15T07:02:26.689Z,31.24
2019-06-15T07:05:01.754Z,31.69
2019-06-15T07:07:35.731Z,31.85
2019-06-15T07:10:11.172Z,31.94
2019-06-15T07:12:46.296Z,31.97
2019-06-15T07:15:22.476Z,32.18
2019-06-15T07:17:58.501Z,32.36
2019-06-15T07:20:32.169Z,32.25
2019-06-15T07:23:05.563Z,32.28
2019-06-15T07:25:39.338Z,30.87
2019-06-15T07:28:14.036Z,32.09
2019-06-15T07:30:49.568Z,33.05
2019-06-15T07:33:24.245Z,33.21
2019-06-15T07:35:59.551Z,33.42
2019-06-15T07:38:38.039Z,32.90
2019-06-15T07:41:13.854Z,32.57
2019-06-15T07:43:49.864Z,32.96
2019-06-15T07:46:29.032Z,32.99
2019-06-15T07:49:05.432Z,32.39
2019-06-15T07:51:39.496Z,33.09
2019-06-15T07:54:13.732Z,33.62
2019-06-15T07:56:50.269Z,33.91
2019-06-15T07:59:24.331Z,33.34
2019-06-15T08:01:59.751Z,34.60
2019-06-15T08:04:34.851Z,34.15
2019-06-15T08:07:10.041Z,34.82
2019-06-15T08:09:45.139Z,34.68
2019-06-15T08:12:19.056Z,34.25
2019-06-15T08:14:52.899Z,35.11
2019-06-15T08:17:29.468Z,35.21
2019-06-15T08:20:06.557Z,33.03
2019-06-15T08:22:39.856Z,33.15
2019-06-15T08:25:15.034Z,33.56
2019-06-15T08:27:49.254Z,34.18
2019-06-15T08:30:35.638Z,35.56
2019-06-15T08:33:11.697Z,35.50
2019-06-15T08:35:46.006Z,33.88
2019-06-15T08:38:24.403Z,34.06
2019-06-15T08:40:58.286Z,31.11
2019-06-15T08:43:32.888Z,34.33
2019-06-15T08:46:08.836Z,35.43
2019-06-15T08:48:44.559Z,36.07
2019-06-15T08:51:19.100Z,34.22
2019-06-15T08:53:53.945Z,35.89
2019-06-15T08:56:29.225Z,35.25
2019-06-15T08:59:05.606Z,35.76
2019-06-15T09:01:41.209Z,33.10
2019-06-15T09:04:14.716Z,31.97
2019-06-15T09:06:48.368Z,34.20
2019-06-15T09:09:22.269Z,34.40
2019-06-15T09:11:55.590Z,31.55
2019-06-15T09:14:29.606Z,32.43
2019-06-15T09:17:04.642Z,33.24
2019-06-15T09:19:38.654Z,32.67
2019-06-15T09:22:13.042Z,32.68
2019-06-15T09:24:48.465Z,33.65
2019-06-15T09:27:25.681Z,33.80
2019-06-15T09:30:00.595Z,32.80
2019-06-15T09:32:38.205Z,34.22
2019-06-15T09:35:12.319Z,34.01
2019-06-15T09:37:46.952Z,34.62
2019-06-15T09:40:21.691Z,32.03
2019-06-15T09:42:55.683Z,34.19
2019-06-15T09:45:33.132Z,35.12
2019-06-15T09:48:07.273Z,35.33
2019-06-15T09:51:00.713Z,34.87
2019-06-15T09:53:33.963Z,36.08
2019-06-15T09:56:14.297Z,36.28
2019-06-15T09:58:46.948Z,34.72
2019-06-15T10:01:23.040Z,34.43
2019-06-15T10:03:57.646Z,35.65
2019-06-15T10:06:32.423Z,35.93
2019-06-15T10:09:08.738Z,35.02
2019-06-15T10:11:44.075Z,35.43
2019-06-15T10:14:18.213Z,35.03
2019-06-15T10:16:52.073Z,35.85
2019-06-15T10:19:27.625Z,33.21
2019-06-15T10:22:01.576Z,34.17
2019-06-15T10:24:35.076Z,34.17
2019-06-15T10:27:08.216Z,32.65
2019-06-15T10:29:43.105Z,31.04
2019-06-15T10:32:21.168Z,32.01
2019-06-15T10:34:55.338Z,31.46
2019-06-15T10:37:30.820Z,31.39
2019-06-15T10:40:05.249Z,32.08
2019-06-15T10:42:39.475Z,31.54
2019-06-15T10:45:15.001Z,31.01
2019-06-15T10:47:49.757Z,30.86
2019-06-15T10:50:23.904Z,31.41
2019-06-15T10:52:57.763Z,33.09
2019-06-15T10:55:31.824Z,32.76
2019-06-15T10:58:05.085Z,32.65
2019-06-15T11:00:39.590Z,31.94
2019-06-15T11:03:13.234Z,31.29
2019-06-15T11:05:47.112Z,31.97
2019-06-15T11:08:20.883Z,30.74
2019-06-15T11:11:10.405Z,31.52
2019-06-15T11:13:44.368Z,30.96
2019-06-15T11:16:18.722Z,32.49
2019-06-15T11:18:52.535Z,33.41
2019-06-15T11:21:31.709Z,33.90
2019-06-15T11:24:05.047Z,34.37
2019-06-15T11:26:41.855Z,35.51
2019-06-15T11:29:13.761Z,36.24
2019-06-15T11:31:47.285Z,33.80
2019-06-15T11:34:20.374Z,34.76
2019-06-15T11:36:55.498Z,31.59
2019-06-15T11:39:28.530Z,31.72
2019-06-15T11:42:02.893Z,32.55
2019-06-15T11:44:37.051Z,33.50
2019-06-15T11:47:11.813Z,34.01
2019-06-15T11:49:46.371Z,33.24
2019-06-15T11:52:22.143Z,32.68
2019-06-15T11:54:59.322Z,31.68
2019-06-15T11:57:35.976Z,32.28
2019-06-15T12:00:10.209Z,32.15
2019-06-15T12:02:49.086Z,33.48
2019-06-15T12:05:28.421Z,33.98
2019-06-15T12:08:20.501Z,33.98
2019-06-15T12:10:56.688Z,34.50
2019-06-15T12:13:30.525Z,34.69
2019-06-15T12:16:05.336Z,34.35
2019-06-15T12:18:39.358Z,34.73
2019-06-15T12:21:14.223Z,35.67
2019-06-15T12:23:48.146Z,35.72
2019-06-15T12:26:24.526Z,35.39
2019-06-15T12:29:00.467Z,37.03
2019-06-15T12:31:34.744Z,37.22
2019-06-15T12:34:13.621Z,36.86
2019-06-15T12:36:47.505Z,36.53
2019-06-15T12:39:21.117Z,37.27
2019-06-15T12:41:54.924Z,37.48
2019-06-15T12:44:28.466Z,37.11
2019-06-15T12:47:04.564Z,37.63
2019-06-15T12:49:38.380Z,37.81
2019-06-15T12:52:13.859Z,38.04
2019-06-15T12:54:47.275Z,38.24
2019-06-15T12:57:20.500Z,37.83
2019-06-15T12:59:54.115Z,38.25
2019-06-15T13:02:27.321Z,38.40
2019-06-15T13:05:00.941Z,38.12
2019-06-15T13:07:37.941Z,38.34
2019-06-15T13:10:12.083Z,38.69
2019-06-15T13:12:46.723Z,38.65
2019-06-15T13:15:22.593Z,37.74
2019-06-15T13:17:55.821Z,36.98
2019-06-15T13:20:30.768Z,36.64
2019-06-15T13:23:04.327Z,36.31
2019-06-15T13:25:43.180Z,35.88
2019-06-15T13:28:16.803Z,35.93
2019-06-15T13:30:52.375Z,36.02
2019-06-15T13:33:26.667Z,36.40
2019-06-15T13:36:01.501Z,36.82
2019-06-15T13:38:35.246Z,36.83
2019-06-15T13:41:08.763Z,37.01
2019-06-15T13:43:43.281Z,37.01
2019-06-15T13:46:17.170Z,37.14
2019-06-15T13:48:51.446Z,36.57
2019-06-15T13:51:25.886Z,36.17
2019-06-15T13:53:59.515Z,35.31
2019-06-15T13:56:34.259Z,35.25
2019-06-15T13:59:11.532Z,35.78
2019-06-15T14:01:45.692Z,36.38
2019-06-15T14:04:22.754Z,36.63
2019-06-15T14:06:57.444Z,36.78
2019-06-15T14:09:31.818Z,36.14
2019-06-15T14:12:07.280Z,36.29
2019-06-15T14:14:41.725Z,35.53
2019-06-15T14:17:16.399Z,35.57
2019-06-15T14:19:51.896Z,35.41
2019-06-15T14:22:26.740Z,35.29
2019-06-15T14:25:40.855Z,35.11
2019-06-15T14:28:16.573Z,35.73
2019-06-15T14:30:51.440Z,35.57
2019-06-15T14:33:32.354Z,35.33
2019-06-15T14:36:08.262Z,35.14
2019-06-15T14:38:42.941Z,35.52
2019-06-15T14:41:20.518Z,35.74
2019-06-15T14:43:54.765Z,35.70
2019-06-15T14:46:29.346Z,35.43
2019-06-15T14:49:05.123Z,35.44
2019-06-15T14:51:38.789Z,35.01
2019-06-15T14:54:13.245Z,34.63
2019-06-15T14:56:47.311Z,34.64
2019-06-15T14:59:21.535Z,34.78
2019-06-15T15:02:09.512Z,34.77
2019-06-15T15:04:32.576Z,34.66
2019-06-15T15:07:06.954Z,34.52
2019-06-15T15:09:49.715Z,34.37
2019-06-15T15:12:22.332Z,34.32
2019-06-15T15:14:57.086Z,34.48
2019-06-15T15:17:31.646Z,34.42
2019-06-15T15:20:07.124Z,34.32
2019-06-15T15:22:41.917Z,34.44
2019-06-15T15:25:16.974Z,34.29
2019-06-15T15:27:52.016Z,33.84
2019-06-15T15:30:38.500Z,33.71
2019-06-15T15:33:12.618Z,33.51
2019-06-15T15:35:46.709Z,33.55
2019-06-15T15:38:21.685Z,33.72
2019-06-15T15:40:57.893Z,34.09
2019-06-15T15:43:31.625Z,33.76
2019-06-15T15:46:07.182Z,33.64
2019-06-15T15:48:40.819Z,33.65
2019-06-15T15:51:17.101Z,33.88
2019-06-15T15:53:53.258Z,33.59
2019-06-15T15:56:28.139Z,33.56
2019-06-15T15:59:06.806Z,33.62
2019-06-15T16:01:40.282Z,33.49
2019-06-15T16:04:13.313Z,33.40
2019-06-15T16:06:47.315Z,33.11
2019-06-15T16:09:20.760Z,32.92
2019-06-15T16:11:56.589Z,32.81
2019-06-15T16:14:31.216Z,32.71
2019-06-15T16:17:06.695Z,32.49
2019-06-15T16:19:41.393Z,32.07
2019-06-15T16:22:15.318Z,32.15
2019-06-15T16:24:49.366Z,32.14
2019-06-15T16:27:23.607Z,32.11
2019-06-15T16:29:57.455Z,32.12
2019-06-15T16:32:32.064Z,32.01
2019-06-15T16:35:09.209Z,31.93
2019-06-15T16:37:44.263Z,31.86
2019-06-15T16:40:26.774Z,31.72
2019-06-15T16:43:00.570Z,31.67
2019-06-15T16:45:35.327Z,31.62
2019-06-15T16:48:09.164Z,31.47
2019-06-15T16:50:42.940Z,31.18
2019-06-15T16:53:18.687Z,30.83
2019-06-15T16:55:53.055Z,30.69
2019-06-15T16:58:27.251Z,30.77
2019-06-15T17:01:00.877Z,30.76
2019-06-15T17:03:36.687Z,30.73
2019-06-15T17:06:10.624Z,30.59
2019-06-15T17:08:46.534Z,30.50
2019-06-15T17:11:20.334Z,30.54
2019-06-15T17:13:56.303Z,30.54
2019-06-15T17:16:30.666Z,30.54
2019-06-15T17:19:07.107Z,30.51
2019-06-15T17:21:41.251Z,30.36
2019-06-15T17:24:17.163Z,30.25
2019-06-15T17:26:51.770Z,30.19
2019-06-15T17:29:26.400Z,30.07
2019-06-15T17:31:59.876Z,29.91
2019-06-15T17:34:36.347Z,29.77
2019-06-15T17:37:09.145Z,29.61
2019-06-15T17:39:43.139Z,29.48
2019-06-15T17:42:18.379Z,29.43
2019-06-15T17:44:59.902Z,29.34
2019-06-15T17:47:33.823Z,29.26
2019-06-15T17:50:08.905Z,29.14
2019-06-15T17:52:42.508Z,28.95
2019-06-15T17:55:17.898Z,28.88
2019-06-15T17:57:52.436Z,28.84
2019-06-15T18:00:31.415Z,28.72
2019-06-15T18:03:06.862Z,28.59
2019-06-15T18:05:41.195Z,28.40
2019-06-15T18:08:16.945Z,28.32
2019-06-15T18:10:50.300Z,28.27
2019-06-15T18:13:23.793Z,28.19
2019-06-15T18:16:00.405Z,28.09
2019-06-15T18:18:42.149Z,27.99
2019-06-15T18:21:16.367Z,27.85
2019-06-15T18:23:49.851Z,27.74
2019-06-15T18:26:23.454Z,27.65
2019-06-15T18:29:00.241Z,27.55
2019-06-15T18:31:36.433Z,27.45
2019-06-15T18:34:16.708Z,27.36
2019-06-15T18:36:49.355Z,27.25
2019-06-15T18:39:26.414Z,27.11
2019-06-15T18:42:00.276Z,26.95
2019-06-15T18:44:36.654Z,26.82
2019-06-15T18:47:11.808Z,26.71
2019-06-15T18:49:47.322Z,26.58
2019-06-15T18:52:22.241Z,26.49
2019-06-15T18:54:57.300Z,26.38
2019-06-15T18:57:36.963Z,26.27
2019-06-15T19:00:12.018Z,26.18
2019-06-15T19:02:46.507Z,26.08
2019-06-15T19:05:19.805Z,25.92
2019-06-15T19:07:56.588Z,25.76
2019-06-15T19:10:35.163Z,25.64
2019-06-15T19:13:09.643Z,25.50
2019-06-15T19:15:43.288Z,25.38
2019-06-15T19:18:18.011Z,25.22
2019-06-15T19:20:53.377Z,25.05
2019-06-15T19:23:30.220Z,24.88
2019-06-15T19:26:06.321Z,24.75
2019-06-15T19:28:41.336Z,24.62
2019-06-15T19:31:15.708Z,24.54
2019-06-15T19:33:56.770Z,24.46
2019-06-15T19:36:29.298Z,24.36
2019-06-15T19:39:06.164Z,24.18
2019-06-15T19:41:39.631Z,24.00
2019-06-15T19:44:13.433Z,23.91
2019-06-15T19:46:49.210Z,23.82
2019-06-15T19:49:22.558Z,23.85
2019-06-15T19:51:57.282Z,23.78
2019-06-15T19:54:31.346Z,23.72
2019-06-15T19:57:06.827Z,23.55
2019-06-15T19:59:41.485Z,23.41
2019-06-15T20:02:17.146Z,23.31
2019-06-15T20:05:00.421Z,23.25
2019-06-15T20:07:26.404Z,23.23
2019-06-15T20:10:00.081Z,23.15
2019-06-15T20:12:34.211Z,23.07
2019-06-15T20:15:08.966Z,23.03
2019-06-15T20:17:43.002Z,23.01
2019-06-15T20:20:17.878Z,22.95
2019-06-15T20:22:51.815Z,22.63
2019-06-15T20:25:26.902Z,22.47
2019-06-15T20:28:01.089Z,22.33
2019-06-15T20:30:37.525Z,22.18
2019-06-15T20:33:12.097Z,22.13
2019-06-15T20:35:47.480Z,22.15
2019-06-15T20:38:21.289Z,22.05
2019-06-15T20:40:56.603Z,22.01
2019-06-15T20:43:30.645Z,21.90
2019-06-15T20:46:06.810Z,21.87
2019-06-15T20:48:40.435Z,21.80
2019-06-15T20:51:17.461Z,21.70
2019-06-15T20:53:51.953Z,21.67
2019-06-15T20:56:26.618Z,21.51
2019-06-15T20:59:02.107Z,21.45
2019-06-15T21:01:37.953Z,21.41
2019-06-15T21:04:12.155Z,21.33
2019-06-15T21:06:47.573Z,21.24
2019-06-15T21:09:20.870Z,21.22
2019-06-15T21:11:54.337Z,21.14
2019-06-15T21:14:28.747Z,21.07
2019-06-15T21:17:03.318Z,21.02
2019-06-15T21:19:37.313Z,20.97
2019-06-15T21:22:10.827Z,20.98
2019-06-15T21:24:46.399Z,20.92
2019-06-15T21:27:26.893Z,20.86
2019-06-15T21:30:00.296Z,20.82
2019-06-15T21:32:36.978Z,20.76
2019-06-15T21:35:11.763Z,20.70
2019-06-15T21:37:46.411Z,20.59
2019-06-15T21:40:23.116Z,20.56
2019-06-15T21:42:57.780Z,20.53
2019-06-15T21:45:32.167Z,20.52
2019-06-15T21:48:07.013Z,20.46
2019-06-15T21:50:41.108Z,20.44
2019-06-15T21:53:16.173Z,20.41
2019-06-15T21:55:50.158Z,20.37
2019-06-15T21:58:27.198Z,20.40
2019-06-15T22:01:18.850Z,20.33
2019-06-15T22:03:52.741Z,20.27
2019-06-15T22:06:29.071Z,20.15
2019-06-15T22:09:06.477Z,19.99
2019-06-15T22:11:40.775Z,19.88
2019-06-15T22:14:16.997Z,19.77
2019-06-15T22:16:50.286Z,19.72
2019-06-15T22:19:26.173Z,19.69
2019-06-15T22:22:00.860Z,19.66
2019-06-15T22:24:36.253Z,19.62
2019-06-15T22:27:10.485Z,19.60
2019-06-15T22:29:47.231Z,19.60
2019-06-15T22:32:21.174Z,19.60
2019-06-15T22:34:56.311Z,19.58
2019-06-15T22:37:30.718Z,19.57
2019-06-15T22:40:07.471Z,19.45
2019-06-15T22:42:40.675Z,19.31
2019-06-15T22:45:17.237Z,19.22
2019-06-15T22:47:51.135Z,19.15
2019-06-15T22:50:24.567Z,19.12
2019-06-15T22:52:58.500Z,19.06
2019-06-15T22:55:31.675Z,18.98
2019-06-15T22:58:06.435Z,18.90
2019-06-15T23:00:40.441Z,18.85
2019-06-15T23:03:16.648Z,18.81
2019-06-15T23:05:49.507Z,18.70
2019-06-15T23:08:23.050Z,18.60
2019-06-15T23:10:57.110Z,18.55
2019-06-15T23:13:31.377Z,18.54
2019-06-15T23:16:07.359Z,18.56
2019-06-15T23:18:41.194Z,18.52
2019-06-15T23:21:20.623Z,18.51
2019-06-15T23:23:56.313Z,18.53
2019-06-15T23:26:31.640Z,18.53
2019-06-15T23:29:06.973Z,18.52
2019-06-15T23:31:41.081Z,18.51
2019-06-15T23:34:16.346Z,18.53
2019-06-15T23:36:57.342Z,18.46
2019-06-15T23:39:28.457Z,18.47
2019-06-15T23:42:02.361Z,18.41
2019-06-15T23:44:36.251Z,18.35
2019-06-15T23:47:10.207Z,18.26
2019-06-15T23:49:45.996Z,18.22
2019-06-15T23:52:19.868Z,18.16
2019-06-15T23:54:53.572Z,18.08
2019-06-15T23:57:36.763Z,18.04
